Map

Track Data

SID SEASON NUMBER BASIN SUBBASIN NAME ISO_TIME NATURE LAT LON WMO_WIND WMO_PRES WMO_AGENCY TRACK_TYPE DIST2LAND LANDFALL IFLAG USA_AGENCY USA_ATCF_ID USA_LAT USA_LON USA_RECORD USA_STATUS USA_WIND USA_PRES USA_SSHS USA_R34_NE USA_R34_SE USA_R34_SW USA_R34_NW USA_R50_NE USA_R50_SE USA_R50_SW USA_R50_NW USA_R64_NE USA_R64_SE USA_R64_SW USA_R64_NW USA_POCI USA_ROCI USA_RMW USA_EYE TOKYO_LAT TOKYO_LON TOKYO_GRADE TOKYO_WIND TOKYO_PRES TOKYO_R50_DIR TOKYO_R50_LONG TOKYO_R50_SHORT TOKYO_R30_DIR TOKYO_R30_LONG TOKYO_R30_SHORT TOKYO_LAND CMA_LAT CMA_LON CMA_CAT CMA_WIND CMA_PRES HKO_LAT HKO_LON HKO_CAT HKO_WIND HKO_PRES NEWDELHI_LAT NEWDELHI_LON NEWDELHI_GRADE NEWDELHI_WIND NEWDELHI_PRES NEWDELHI_CI NEWDELHI_DP NEWDELHI_POCI REUNION_LAT REUNION_LON REUNION_TYPE REUNION_WIND REUNION_PRES REUNION_TNUM REUNION_CI REUNION_RMW REUNION_R34_NE REUNION_R34_SE REUNION_R34_SW REUNION_R34_NW REUNION_R50_NE REUNION_R50_SE REUNION_R50_SW REUNION_R50_NW REUNION_R64_NE REUNION_R64_SE REUNION_R64_SW REUNION_R64_NW BOM_LAT BOM_LON BOM_TYPE BOM_WIND BOM_PRES BOM_TNUM BOM_CI BOM_RMW BOM_R34_NE BOM_R34_SE BOM_R34_SW BOM_R34_NW BOM_R50_NE BOM_R50_SE BOM_R50_SW BOM_R50_NW BOM_R64_NE BOM_R64_SE BOM_R64_SW BOM_R64_NW BOM_ROCI BOM_POCI BOM_EYE BOM_POS_METHOD BOM_PRES_METHOD NADI_LAT NADI_LON NADI_CAT NADI_WIND NADI_PRES WELLINGTON_LAT WELLINGTON_LON WELLINGTON_WIND WELLINGTON_PRES DS824_LAT DS824_LON DS824_STAGE DS824_WIND DS824_PRES TD9636_LAT TD9636_LON TD9636_STAGE TD9636_WIND TD9636_PRES TD9635_LAT TD9635_LON TD9635_WIND TD9635_PRES TD9635_ROCI NEUMANN_LAT NEUMANN_LON NEUMANN_CLASS NEUMANN_WIND NEUMANN_PRES MLC_LAT MLC_LON MLC_CLASS MLC_WIND MLC_PRES USA_GUST BOM_GUST BOM_GUST_PER REUNION_GUST REUNION_GUST_PER USA_SEAHGT USA_SEARAD_NE USA_SEARAD_SE USA_SEARAD_SW USA_SEARAD_NW STORM_SPEED STORM_DIR
1977082N03165 1977 32 WP MM PATSY 1977-03-23 00:00:00 NR 2.50000 164.500 main 1288 1288 __________O___ -1 2.50000 164.500 1 11 342
1977082N03165 1977 32 WP MM PATSY 1977-03-23 03:00:00 NR 3.04060 164.328 main 1335 1335 __________P___ -1 3.04060 164.328 1 10 342
1977082N03165 1977 32 WP MM PATSY 1977-03-23 06:00:00 TS 3.43498 164.197 main 1375 1375 O________OP___ jtwc_wp WP011977 3.30000 164.200 TD 25 -1 3.30000 164.200 TC 25 3.52497 164.195 1 8 345
1977082N03165 1977 32 WP MM PATSY 1977-03-23 09:00:00 TS 3.78591 164.130 main 1411 1411 P________PP___ WP011977 3.67498 164.120 TD 27 -1 3.67498 164.120 TC 27 3.89684 164.139 1 7 2
1977082N03165 1977 32 WP MM PATSY 1977-03-23 12:00:00 TS 4.10000 164.200 main 1446 1446 O________OO___ jtwc_wp WP011977 4.10000 164.200 TD 30 -1 4.10000 164.200 TC 30 4.10000 164.200 1 30 7 30
1977082N03165 1977 32 WP MM PATSY 1977-03-23 15:00:00 TS 4.40007 164.484 main 1491 1491 P________PP___ WP011977 4.55006 164.527 TD 30 -1 4.55006 164.527 TC 30 4.10009 164.397 1 28 7 61
1977082N03165 1977 32 WP MM PATSY 1977-03-23 18:00:00 TS 4.45005 164.826 main 1512 1465 O________OP___ jtwc_wp WP011977 4.70000 164.900 TD 30 -1 4.70000 164.900 TC 30 3.95015 164.678 1 27 7 124
1977082N03165 1977 32 WP MM PATSY 1977-03-23 21:00:00 TS 4.01502 165.058 main 1469 1420 P________PP___ WP011977 4.15998 165.103 TD 27 -1 4.15998 165.103 TC 27 3.72510 164.969 1 26 10 159
1977082N03165 1977 32 WP MM PATSY 1977-03-24 00:00:00 TS 3.50000 165.200 main 1420 1399 O________OO___ jtwc_wp WP011977 3.50000 165.200 TD 25 -1 3.50000 165.200 TC 25 3.50000 165.200 1 25 7 165
1977082N03165 1977 32 WP MM PATSY 1977-03-24 03:00:00 TS 3.34249 165.240 main 1399 1399 P________PP___ WP011977 3.32501 165.222 TD 22 -1 3.32501 165.222 TC 22 3.37746 165.276 1 22 2 0
1977082N03165 1977 32 WP MM PATSY 1977-03-24 06:00:00 TS 3.28999 165.227 main 1399 1388 O________OP___ jtwc_wp WP011977 3.30000 165.200 TD 20 -1 3.30000 165.200 TC 20 3.26996 165.282 1 20 2 0
1977082N03165 1977 32 WP MM PATSY 1977-03-24 09:00:00 TS 3.18749 165.216 main 1388 1378 P________PP___ WP011977 3.19250 165.200 TD 17 -1 3.19250 165.200 TC 17 3.17748 165.248 1 17 2 0
1977082N03165 1977 32 WP MM PATSY 1977-03-24 12:00:00 TS 3.10000 165.200 main 1378 1367 O________OO___ jtwc_wp WP011977 3.10000 165.200 TD 15 -1 3.10000 165.200 TC 15 3.10000 165.200 1 15 2 185
1977082N03165 1977 32 WP MM PATSY 1977-03-24 15:00:00 TS 3.03478 165.211 main 1367 1367 P________PP___ WP011977 3.04250 165.208 TD 15 -1 3.04250 165.208 TC 15 3.01935 165.219 1 15 1 0
1977082N03165 1977 32 WP MM PATSY 1977-03-24 18:00:00 TS 2.98499 165.208 main 1367 1357 O________OP___ jtwc_wp WP011977 3.00000 165.200 TD 15 -1 3.00000 165.200 TC 15 2.95496 165.225 1 15 1 202
1977082N03165 1977 32 WP MM PATSY 1977-03-24 21:00:00 TS 2.93770 165.175 main 1357 1353 P________PP___ WP011977 2.95000 165.165 TD 15 -1 2.95000 165.165 TC 15 2.91309 165.194 1 15 1 232
1977082N03165 1977 32 WP MM PATSY 1977-03-25 00:00:00 TS 2.90000 165.100 main 1353 1349 O________OO___ jtwc_wp WP011977 2.90000 165.100 TD 15 -1 2.90000 165.100 TC 15 2.90000 165.100 1 15 2 255
1977082N03165 1977 32 WP MM PATSY 1977-03-25 03:00:00 TS 2.88636 164.988 main 1349 1341 P________PP___ WP011977 2.84250 165.023 TD 15 -1 2.84250 165.023 TC 15 2.97408 164.919 1 3 268
1977082N03165 1977 32 WP MM PATSY 1977-03-25 06:00:00 TS 2.88917 164.825 main 1341 1334 O________OP___ jtwc_wp WP011977 2.80000 164.900 TD 15 -1 2.80000 164.900 TC 15 3.06752 164.675 1 4 273
1977082N03165 1977 32 WP MM PATSY 1977-03-25 09:00:00 TS 2.90407 164.608 main 1334 1327 P________PP___ WP011977 2.79250 164.715 TD 17 -1 2.79250 164.715 TC 17 3.12720 164.394 1 5 271
1977082N03165 1977 32 WP MM PATSY 1977-03-25 12:00:00 TS 2.90000 164.367 main 1327 1310 O________OO___ jtwc_wp WP011977 2.80000 164.500 TD 20 -1 2.80000 164.500 TC 20 3.10000 164.100 1 5 259
1977082N03165 1977 32 WP MM PATSY 1977-03-25 15:00:00 TS 2.81645 164.148 main 1307 1290 P________PP___ WP011977 2.79999 164.308 TD 20 -1 2.79999 164.308 TC 20 2.84938 163.828 1 5 247
1977082N03165 1977 32 WP MM PATSY 1977-03-25 18:00:00 TS 2.70667 163.917 main 1290 1270 O________OP___ jtwc_wp WP011977 2.80000 164.100 TD 20 -1 2.80000 164.100 TC 20 2.52000 163.550 1 5 245
1977082N03165 1977 32 WP MM PATSY 1977-03-25 21:00:00 TS 2.59687 163.667 main 1270 1246 P________PP___ WP011977 2.79249 163.865 TD 22 -1 2.79249 163.865 TC 22 2.20561 163.272 1 5 251
1977082N03165 1977 32 WP MM PATSY 1977-03-26 00:00:00 TS 2.53333 163.400 main 1246 1237 O________OO___ jtwc_wp WP011977 2.80000 163.600 TD 25 -1 2.80000 163.600 TC 25 2.00000 163.000 1 6 267
1977082N03165 1977 32 WP MM PATSY 1977-03-26 03:00:00 TS 2.56823 163.117 main 1243 1230 P________PP___ WP011977 2.84250 163.308 TD 25 -1 2.84250 163.308 TC 25 2.01969 162.735 1 6 282
1977082N03165 1977 32 WP MM PATSY 1977-03-26 06:00:00 TS 2.65250 162.826 main 1240 1232 O________OP___ jtwc_wp WP011977 2.90000 163.000 TD 25 -1 2.90000 163.000 TC 25 2.15750 162.478 1 6 288
1977082N03165 1977 32 WP MM PATSY 1977-03-26 09:00:00 TS 2.75051 162.544 main 1239 1232 P________PP___ WP011977 2.94249 162.700 TD 27 -1 2.94249 162.700 TC 27 2.36656 162.232 1 6 291
1977082N03165 1977 32 WP MM PATSY 1977-03-26 12:00:00 TS 2.86667 162.267 main 1242 1230 O________OO___ jtwc_wp WP011977 3.00000 162.400 TD 30 -1 3.00000 162.400 TC 30 2.60000 162.000 1 6 294
1977082N03165 1977 32 WP MM PATSY 1977-03-26 15:00:00 TS 2.98748 162.001 main 1231 1224 P________PP___ WP011977 3.09249 162.100 TD 30 -1 3.09249 162.100 TC 30 2.77746 161.802 1 6 296
1977082N03165 1977 32 WP MM PATSY 1977-03-26 18:00:00 TS 3.12331 161.738 main 1220 1216 O________OP___ jtwc_wp WP011977 3.20000 161.800 TD 30 -1 3.20000 161.800 TC 30 2.96994 161.615 1 6 296
1977082N03165 1977 32 WP MM PATSY 1977-03-26 21:00:00 TS 3.24914 161.474 main 1216 1212 P________PP___ WP011977 3.28499 161.500 TD 32 -1 3.28499 161.500 TC 32 3.17745 161.421 1 6 301
1977082N03165 1977 32 WP MM PATSY 1977-03-27 00:00:00 TS 3.42000 161.247 1006 tokyo main 1215 1215 OOOO_____OO___ jtwc_wp WP011977 3.40000 161.200 TS 35 0 3.50000 161.500 2 1006 0 0 0 3.50000 161.500 1 29 1004 3.50000 161.300 TD 30 995 3.40000 161.200 TC 35 3.40000 161.200 2 35 6 304
1977082N03165 1977 32 WP MM PATSY 1977-03-27 03:00:00 TS 3.61092 160.946 main 1216 1213 PPPP_____PP___ WP011977 3.56999 160.900 TS 37 0 3.63008 160.975 2 1005 0 0 3.72502 161.200 1 29 1004 3.63254 160.885 TD 30 995 3.56999 160.900 TC 37 3.61534 160.929 2 37 8 304
1977082N03165 1977 32 WP MM PATSY 1977-03-27 06:00:00 TS 3.83763 160.620 1004 tokyo main 1218 1218 OOOO_____OP___ jtwc_wp WP011977 3.80000 160.600 TS 40 0 3.80000 160.500 2 1004 0 0 0 4.00000 160.900 1 29 1004 3.80000 160.500 TD 30 995 3.80000 160.600 TC 40 3.84754 160.630 2 40 8 308
1977082N03165 1977 32 WP MM PATSY 1977-03-27 09:00:00 TS 4.10973 160.300 main 1224 1224 PPPP_____PP___ WP011977 4.06999 160.300 TS 42 0 4.03497 160.113 2 1003 0 0 4.34999 160.600 1 29 1002 4.02749 160.170 TD 35 990 4.06999 160.300 TC 42 4.10596 160.316 2 42 9 313
1977082N03165 1977 32 WP MM PATSY 1977-03-27 12:00:00 TS 4.41667 160.000 1002 tokyo main 1227 1227 OOOO_____OO___ jtwc_wp WP011977 4.40000 160.000 TS 45 0 4.30000 159.800 2 1002 0 0 0 4.70000 160.300 1 29 1000 4.30000 159.900 TS 40 985 4.40000 160.000 TC 45 4.40000 160.000 2 45 9 317
1977082N03165 1977 32 WP MM PATSY 1977-03-27 15:00:00 TS 4.73456 159.723 main 1231 1231 PPPP_____PP___ WP011977 4.79249 159.700 TS 47 0 4.52748 159.535 2 1000 0 0 4.95747 160.007 1 29 1000 4.56998 159.692 TS 42 985 4.79249 159.700 TC 47 4.76744 159.704 2 46 9 320
1977082N03165 1977 32 WP MM PATSY 1977-03-27 18:00:00 TS 5.07749 159.451 998 tokyo main 1253 1247 OOOO_____OP___ jtwc_wp WP011977 5.20000 159.400 TS 50 0 4.80000 159.300 2 998 0 0 0 5.20000 159.700 1 29 1000 4.90000 159.500 TS 45 985 5.20000 159.400 TC 50 5.16492 159.408 2 47 9 323
1977082N03165 1977 32 WP MM PATSY 1977-03-27 21:00:00 TS 5.46331 159.166 main 1270 1263 PPPP_____PP___ WP011977 5.57998 159.100 TS 50 0 5.19998 159.058 2 994 0 0 5.50749 159.358 1 38 997 5.35748 159.273 TS 45 985 5.57998 159.100 TC 50 5.55494 159.107 2 48 9 322
1977082N03165 1977 32 WP MM PATSY 1977-03-28 00:00:00 TS 5.81667 158.867 50 990 tokyo main 1276 1269 OOOO_____OO___ jtwc_wp WP011977 5.90000 158.800 TS 50 0 5.60000 158.800 4 50 990 0 9 125 125 0 5.80000 159.000 3 48 995 5.80000 159.000 TS 45 985 5.90000 158.800 TC 50 5.90000 158.800 2 50 9 314
1977082N03165 1977 32 WP MM PATSY 1977-03-28 03:00:00 TS 6.05930 158.555 main 1283 1268 PPPP_____PP___ WP011977 6.12247 158.507 TS 47 0 5.87248 158.515 4 50 993 0 9 125 125 5.99998 158.650 3 48 993 6.07998 158.672 TS 42 991 6.12247 158.507 TC 47 6.15840 158.478 2 47 8 305
1977082N03165 1977 32 WP MM PATSY 1977-03-28 06:00:00 TS 6.26124 158.225 50 996 tokyo main 1277 1271 OOOO_____OP___ jtwc_wp WP011977 6.30000 158.200 TS 45 0 6.10000 158.200 4 50 996 0 9 125 125 0 6.20000 158.300 3 48 992 6.30000 158.300 TS 40 998 6.30000 158.200 TC 45 6.36745 158.150 2 45 8 303
1977082N03165 1977 32 WP MM PATSY 1977-03-28 09:00:00 TS 6.49544 157.879 main 1279 1271 PPPP_____PP___ WP011977 6.50750 157.850 TS 42 0 6.35749 157.857 4 50 998 0 9 125 125 6.49990 157.980 3 48 991 6.55747 157.915 TS 37 999 6.50750 157.850 TC 42 6.54277 157.822 2 42 8 303
1977082N03165 1977 32 WP MM PATSY 1977-03-28 12:00:00 TS 6.71667 157.517 50 1000 tokyo main 1275 1273 OOOO_____OO___ jtwc_wp WP011977 6.70000 157.500 TS 40 0 6.60000 157.500 4 50 1000 0 9 125 125 0 6.80000 157.600 3 48 990 6.80000 157.500 TS 35 1000 6.70000 157.500 TC 40 6.70000 157.500 2 40 8 299
1977082N03165 1977 32 WP MM PATSY 1977-03-28 15:00:00 TS 6.89447 157.153 main 1277 1265 PPPP_____PP___ WP011977 6.85747 157.192 TS 37 0 6.81496 157.157 4 47 1001 0 9 112 112 7.00000 157.087 3 48 991 6.98485 157.095 TS 32 1000 6.85747 157.192 TC 37 6.85211 157.193 2 37 8 295
1977082N03165 1977 32 WP MM PATSY 1977-03-28 18:00:00 TS 7.06540 156.765 45 1002 tokyo main 1275 1265 OOOO_____OP___ jtwc_wp WP011977 7.00000 156.900 TS 35 0 7.00000 156.800 3 45 1002 0 9 100 100 0 7.20000 156.500 3 48 992 7.20000 156.600 TD 30 1000 7.00000 156.900 TC 35 6.99239 156.892 2 35 9 294
1977082N03165 1977 32 WP MM PATSY 1977-03-28 21:00:00 TS 7.26654 156.329 main 1271 1265 PPPP_____PP___ WP011977 7.13498 156.600 TS 32 -1 7.14250 156.400 3 45 1002 0 9 100 100 7.50003 155.885 3 48 993 7.55023 155.893 TD 30 1000 7.13498 156.600 TC 32 7.13649 156.596 2 32 10 296
1977082N03165 1977 32 WP MM PATSY 1977-03-29 00:00:00 TS 7.48333 155.900 45 1002 tokyo main 1270 1265 OOOO_____OO___ jtwc_wp WP011977 7.30000 156.300 TD 30 -1 7.30000 156.000 3 45 1002 0 9 100 100 0 7.80000 155.300 3 48 995 7.90000 155.200 TD 30 1000 7.30000 156.300 TC 30 7.30000 156.300 1 30 9 300
1977082N03165 1977 32 WP MM PATSY 1977-03-29 03:00:00 TS 7.70041 155.567 main 1276 1272 PPPP_____PP___ WP011977 7.54248 156.000 TD 27 -1 7.52729 155.695 3 45 1002 0 9 100 100 8.02501 154.817 3 43 996 8.13734 154.732 TD 27 1001 7.54248 156.000 TC 27 7.52782 155.984 1 27 8 305
1977082N03165 1977 32 WP MM PATSY 1977-03-29 06:00:00 TS 7.92228 155.267 45 1002 tokyo main 1284 1280 OOOO_____OP___ jtwc_wp WP011977 7.80000 155.700 TD 25 -1 7.80000 155.300 3 45 1002 0 9 100 100 0 8.20000 154.400 2 38 997 8.30000 154.400 TD 25 1002 7.80000 155.700 TC 25 7.77253 155.670 1 25 7 306
1977082N03165 1977 32 WP MM PATSY 1977-03-29 09:00:00 TS 8.13769 154.959 main 1292 1289 PP_P_____PP___ WP011977 8.03001 155.385 TD 22 -1 8.09545 154.673 3 42 1002 0 9 75 75 2 8.40742 154.135 TD 25 1003 8.03001 155.385 TC 22 8.00596 155.371 1 22 7 303
1977082N03165 1977 32 WP MM PATSY 1977-03-29 12:00:00 TS 8.28889 154.700 40 1002 tokyo main 1302 1299 OO_O_____OO___ jtwc_wp WP011977 8.20000 155.100 TD 20 -1 8.40000 153.900 3 40 1002 0 9 50 50 0 8.50000 153.900 TD 25 1004 8.20000 155.100 TC 20 8.20000 155.100 6 20 5 299
1977082N03165 1977 32 WP MM PATSY 1977-03-29 15:00:00 TS 8.39050 154.499 main 1306 1303 P__P_____PP___ WP011977 8.26496 154.885 TD 20 -1 3 0 9 8.63498 153.615 TD 25 1004 8.26496 154.885 TC 20 8.31794 154.887 6 20 4 295
1977082N03165 1977 32 WP MM PATSY 1977-03-29 18:00:00 TS 8.44869 154.350 40 1004 tokyo main 1299 1299 O__O_____OP___ jtwc_wp WP011977 8.30000 154.700 TD 20 -1 8.80000 153.300 TD 25 1004 8.30000 154.700 TC 20 8.39474 154.700 6 20 4 295
1977082N03165 1977 32 WP MM PATSY 1977-03-29 21:00:00 TS 8.56416 154.121 main 1315 1309 P__P_____PP___ WP011977 8.39996 154.515 TD 20 -1 9.00753 152.943 TD 25 1004 8.39996 154.515 TC 20 8.44919 154.512 6 20 5 296
1977082N03165 1977 32 WP MM PATSY 1977-03-30 00:00:00 TS 8.67500 153.875 1006 tokyo main 1320 1312 O__O_____OO___ jtwc_wp WP011977 8.50000 154.300 TD 20 -1 9.20000 152.600 TD 25 1004 8.50000 154.300 TC 20 8.50000 154.300 6 20 6 290
1977082N03165 1977 32 WP MM PATSY 1977-03-30 03:00:00 TS 8.74851 153.598 main 1312 1312 P__P_____PP___ WP011977 8.55001 154.015 TD 17 -1 9.31495 152.335 TD 25 1005 8.55001 154.015 TC 17 8.57909 154.029 6 18 6 284
1977082N03165 1977 32 WP MM PATSY 1977-03-30 06:00:00 TS 8.81438 153.308 1006 tokyo main 1315 1313 O__O_____OP___ jtwc_wp WP011977 8.60000 153.700 TD 15 -1 9.40000 152.100 TD 25 1006 8.60000 153.700 TC 15 8.65753 153.730 6 17 6 286
1977082N03165 1977 32 WP MM PATSY 1977-03-30 09:00:00 TS 8.90803 153.018 main 1320 1318 P__P_____PP___ WP011977 8.69998 153.400 TD 15 -1 9.49996 151.857 TD 25 1006 8.69998 153.400 TC 15 8.73220 153.416 6 16 6 288
1977082N03165 1977 32 WP MM PATSY 1977-03-30 12:00:00 TS 9.00000 152.725 1008 tokyo main 1326 1323 O__O_____OO___ jtwc_wp WP011977 8.80000 153.100 TD 15 -1 9.60000 151.600 TD 25 1006 8.80000 153.100 TC 15 8.80000 153.100 6 15 6 286
1977082N03165 1977 32 WP MM PATSY 1977-03-30 15:00:00 TS 9.06839 152.438 main 1332 1328 P__P_____PP___ WP011977 8.85748 152.800 TD 15 -1 9.69980 151.360 TD 25 1007 8.85748 152.800 TC 15 8.85880 152.791 6 15 6 282
1977082N03165 1977 32 WP MM PATSY 1977-03-30 18:00:00 TS 9.12753 152.123 1008 tokyo main 1328 1327 O__O_____OP___ jtwc_wp WP011977 8.90000 152.500 TD 15 -1 9.80000 151.000 TD 25 1008 8.90000 152.500 TC 15 8.91012 152.490 6 15 7 280
1977082N03165 1977 32 WP MM PATSY 1977-03-30 21:00:00 TS 9.18798 151.753 main 1337 1334 P__P_____PP___ WP011977 8.94755 152.200 TD 15 -1 9.90046 150.418 TD 25 1008 8.94755 152.200 TC 15 8.95638 152.194 6 15 8 279
1977082N03165 1977 32 WP MM PATSY 1977-03-31 00:00:00 TS 9.25000 151.350 1008 tokyo main 1345 O__O_____OO___ jtwc_wp WP011977 9.00000 151.900 TD 15 1006 -1 10.0000 149.700 TD 25 1008 9.00000 151.900 TC 15 1006 9.00000 151.900 6 15 8 279

Digital Typhoon Data and Search

About IBTrACS Database

This database is a web-friendly format of International Best Track Archive for Climate Stewardship (IBTrACS), a global best track data archive curated by NOAA dating back to 1842.

Updated: 2021-12-03